Time;durP1;ratioP1;P1;durP2;ratioP2;P2;SDS_P1;SDS_P2;PMS_P1;PMS_P2;Temp;Humidity;BMP_temperature;BMP_pressure;BME280_temperature;BME280_humidity;BME280_pressure;Samples;Min_cycle;Max_cycle;Signal;HPM_P1;HPM_P2
2021/12/29 00:02:13;;;;;;;117.03;27.63;;;;;;;8.21;100.00;96376.78;5046546;28;20507;-67
2021/12/29 00:04:41;;;;;;;105.90;24.42;;;;;;;8.19;100.00;96367.31;5063951;28;20086;-67
2021/12/29 00:07:10;;;;;;;114.60;27.48;;;;;;;8.25;100.00;96371.38;5064065;28;20060;-63
2021/12/29 00:09:39;;;;;;;100.30;26.88;;;;;;;8.15;100.00;96400.34;5064163;28;20052;-67
2021/12/29 00:12:10;;;;;;;105.82;25.27;;;;;;;8.53;100.00;96366.25;5060251;28;20623;-63
2021/12/29 00:14:37;;;;;;;106.15;24.73;;;;;;;8.58;100.00;96363.16;5043984;28;20055;-63
2021/12/29 00:17:04;;;;;;;108.43;26.02;;;;;;;8.58;100.00;96376.97;5026377;28;20701;-62
2021/12/29 00:19:32;;;;;;;95.28;25.15;;;;;;;8.66;100.00;96362.09;5044832;28;20048;-68
2021/12/29 00:21:58;;;;;;;98.43;27.02;;;;;;;8.57;100.00;96347.75;5044287;28;20258;-68
2021/12/29 00:24:25;;;;;;;94.00;26.70;;;;;;;8.45;100.00;96320.41;5043749;28;20139;-67
2021/12/29 00:26:52;;;;;;;92.38;28.23;;;;;;;8.70;100.00;96344.41;5043686;28;20071;-63
2021/12/29 00:29:19;;;;;;;93.82;26.83;;;;;;;8.29;100.00;96300.47;5044223;28;20068;-66
2021/12/29 00:31:46;;;;;;;122.10;41.03;;;;;;;8.76;100.00;96350.38;5042573;28;20053;-63
2021/12/29 00:34:13;;;;;;;78.97;24.40;;;;;;;5.47;100.00;95840.38;5044151;28;20053;-66
2021/12/29 00:36:40;;;;;;;79.57;22.65;;;;;;;8.91;100.00;96415.69;5044232;28;20053;-67
2021/12/29 00:39:06;;;;;;;90.18;21.80;;;;;;;8.37;100.00;96349.88;5044058;28;20515;-66
2021/12/29 00:41:33;;;;;;;84.38;22.75;;;;;;;8.12;100.00;96347.88;5025746;28;20063;-66
2021/12/29 00:44:00;;;;;;;87.85;24.80;;;;;;;8.10;100.00;96358.47;5041402;28;20118;-68
2021/12/29 00:46:31;;;;;;;99.85;25.75;;;;;;;7.50;100.00;96231.56;5043333;28;20118;-67
2021/12/29 00:48:58;;;;;;;90.15;25.67;;;;;;;8.43;100.00;96369.63;5043699;28;20413;-63
2021/12/29 00:51:25;;;;;;;60.33;16.70;;;;;;;7.74;100.00;96327.59;5043632;28;20052;-64
2021/12/29 00:53:52;;;;;;;92.25;21.85;;;;;;;7.96;100.00;96363.78;5043941;28;20053;-66
2021/12/29 00:56:18;;;;;;;87.65;23.38;;;;;;;7.68;100.00;96367.66;5025296;28;20053;-62
2021/12/29 00:58:45;;;;;;;80.78;20.98;;;;;;;7.65;100.00;96373.09;5043284;28;20135;-67
2021/12/29 01:01:12;;;;;;;94.15;22.77;;;;;;;7.66;100.00;96372.75;5043538;28;20045;-67
2021/12/29 01:03:40;;;;;;;98.90;21.83;;;;;;;7.76;100.00;96370.53;5043586;28;20072;-66
2021/12/29 01:06:07;;;;;;;66.55;19.20;;;;;;;7.52;100.00;96366.97;5043063;28;20375;-67
2021/12/29 01:08:34;;;;;;;92.85;22.17;;;;;;;7.49;100.00;96373.22;5042789;28;20049;-65
2021/12/29 01:11:02;;;;;;;68.07;19.30;;;;;;;7.29;100.00;96362.63;5043179;28;20053;-66
2021/12/29 01:13:31;;;;;;;82.78;19.50;;;;;;;6.99;100.00;96320.34;5058059;28;20048;-62
2021/12/29 01:18:35;;;;;;;73.88;17.38;;;;;;;6.96;100.00;96371.44;5063614;28;20514;-63
2021/12/29 01:21:02;;;;;;;79.82;19.83;;;;;;;7.03;100.00;96359.78;5045325;28;20048;-69
2021/12/29 01:23:29;;;;;;;105.70;19.77;;;;;;;7.10;100.00;96346.94;5063368;28;20052;-67
2021/12/29 01:25:56;;;;;;;101.15;20.83;;;;;;;6.49;100.00;96238.81;5063225;28;20059;-66
2021/12/29 01:28:23;;;;;;;121.03;23.42;;;;;;;4.50;100.00;95936.84;5045595;28;20048;-67
2021/12/29 01:30:50;;;;;;;97.57;21.63;;;;;;;7.04;100.00;96355.84;5063404;28;20049;-62
2021/12/29 01:33:16;;;;;;;93.53;20.45;;;;;;;6.90;100.00;96306.84;5061742;28;20461;-62
2021/12/29 01:35:43;;;;;;;90.00;22.33;;;;;;;7.34;100.00;96332.03;5062952;28;20049;-67
2021/12/29 01:38:10;;;;;;;76.57;18.13;;;;;;;7.47;100.00;96342.50;5062748;28;20048;-67
2021/12/29 01:40:39;;;;;;;80.57;17.42;;;;;;;7.59;100.00;96349.78;5045135;28;20045;-63
2021/12/29 01:43:08;;;;;;;72.32;16.58;;;;;;;7.67;100.00;96349.53;5062748;28;20048;-68
2021/12/29 01:45:36;;;;;;;63.28;17.05;;;;;;;7.63;100.00;96326.63;5062432;28;20056;-63
2021/12/29 01:48:04;;;;;;;78.03;18.38;;;;;;;7.86;100.00;96375.41;5062932;28;20080;-67
2021/12/29 01:50:32;;;;;;;76.10;21.52;;;;;;;8.00;100.00;96337.84;5062824;28;20053;-62
2021/12/29 01:53:06;;;;;;;69.68;20.80;;;;;;;8.06;100.00;96333.59;5063361;28;20057;-66
2021/12/29 01:55:35;;;;;;;76.03;20.98;;;;;;;7.85;100.00;96288.38;5063266;28;20055;-67
2021/12/29 01:58:03;;;;;;;62.33;19.65;;;;;;;7.74;100.00;96269.69;5045278;28;20135;-68
2021/12/29 02:00:32;;;;;;;59.90;20.02;;;;;;;8.17;100.00;96336.53;5062430;28;20049;-62
2021/12/29 02:02:59;;;;;;;57.20;20.00;;;;;;;8.26;100.00;96345.34;5044733;28;20078;-62
2021/12/29 02:05:26;;;;;;;47.60;15.88;;;;;;;7.88;100.00;96302.22;5062309;28;20072;-67
2021/12/29 02:07:53;;;;;;;61.85;18.23;;;;;;;8.02;100.00;96345.75;5061465;28;20072;-67
2021/12/29 02:10:22;;;;;;;61.75;16.55;;;;;;;7.88;100.00;96328.97;5062700;28;20058;-67
2021/12/29 02:12:49;;;;;;;52.10;16.35;;;;;;;7.53;100.00;96252.84;5053243;28;20060;-66
2021/12/29 02:15:16;;;;;;;63.28;17.00;;;;;;;7.50;100.00;96248.09;5040625;28;20049;-64
2021/12/29 02:17:43;;;;;;;49.83;14.43;;;;;;;7.83;100.00;96338.38;5025262;28;20183;-62
2021/12/29 02:20:11;;;;;;;44.10;15.57;;;;;;;7.56;100.00;96290.69;5044577;28;20049;-62
2021/12/29 02:22:45;;;;;;;53.58;16.77;;;;;;;7.98;100.00;96333.88;5046418;28;20171;-67
2021/12/29 02:27:48;;;;;;;44.20;13.95;;;;;;;7.69;100.00;96333.44;5046238;28;20303;-68
2021/12/29 02:30:17;;;;;;;38.30;12.88;;;;;;;7.53;100.00;96335.53;5028035;28;20052;-70
2021/12/29 02:32:45;;;;;;;44.72;13.43;;;;;;;7.30;100.00;96282.38;5046330;28;20558;-64
2021/12/29 02:35:15;;;;;;;40.25;12.77;;;;;;;7.85;100.00;96335.25;5028371;28;20531;-63
2021/12/29 02:37:42;;;;;;;42.83;11.80;;;;;;;7.36;100.00;96319.50;5046127;28;20053;-64
2021/12/29 02:40:10;;;;;;;33.97;11.90;;;;;;;7.00;100.00;96291.69;5028800;28;20084;-64
2021/12/29 02:42:41;;;;;;;34.70;12.50;;;;;;;7.21;100.00;96323.13;5028229;28;20547;-71
2021/12/29 02:45:13;;;;;;;31.27;11.50;;;;;;;7.04;100.00;96323.63;5045932;28;20061;-64
2021/12/29 02:47:41;;;;;;;36.20;12.27;;;;;;;6.87;100.00;96291.06;5028239;28;20045;-69
2021/12/29 02:50:09;;;;;;;36.60;12.60;;;;;;;6.51;100.00;96233.75;5045531;28;20075;-68
2021/12/29 02:52:37;;;;;;;27.80;10.70;;;;;;;6.86;100.00;96327.97;5045726;28;20055;-64
2021/12/29 02:55:04;;;;;;;31.23;10.75;;;;;;;6.81;100.00;96325.50;5045576;28;20048;-64
2021/12/29 02:57:30;;;;;;;29.60;10.95;;;;;;;6.79;100.00;96327.84;5027804;28;20045;-68
2021/12/29 02:59:57;;;;;;;31.90;10.25;;;;;;;6.60;100.00;96336.13;5045415;28;20053;-67
2021/12/29 03:02:24;;;;;;;27.75;10.68;;;;;;;6.39;100.00;96291.66;5046154;28;20049;-63
2021/12/29 03:04:52;;;;;;;27.42;10.07;;;;;;;6.74;100.00;96336.41;5045337;28;20059;-64
2021/12/29 03:07:20;;;;;;;24.63;9.88;;;;;;;6.67;100.00;96335.47;5045321;28;20451;-69
2021/12/29 03:09:46;;;;;;;24.67;9.65;;;;;;;6.61;100.00;96318.44;5045311;28;20071;-72
2021/12/29 03:12:13;;;;;;;23.83;9.85;;;;;;;6.85;100.00;96336.59;5049205;28;20056;-64
2021/12/29 03:14:53;;;;;;;25.02;9.50;;;;;;;6.73;100.00;96318.31;5065155;28;20055;-70
2021/12/29 03:17:21;;;;;;;20.08;7.75;;;;;;;6.88;100.00;96339.44;5065199;28;20048;-63
2021/12/29 03:19:48;;;;;;;22.17;8.30;;;;;;;6.90;100.00;96342.63;5065222;28;20071;-63
2021/12/29 03:22:15;;;;;;;26.77;10.27;;;;;;;7.02;100.00;96336.13;5065437;28;20629;-70
2021/12/29 03:24:42;;;;;;;28.58;9.80;;;;;;;7.18;100.00;96339.59;5065212;28;20063;-63
2021/12/29 03:27:08;;;;;;;19.85;8.25;;;;;;;7.24;100.00;96336.19;5047162;28;20056;-70
2021/12/29 03:29:35;;;;;;;27.52;8.27;;;;;;;7.04;100.00;96340.13;5047045;28;20044;-66
2021/12/29 03:32:07;;;;;;;20.00;7.40;;;;;;;6.82;100.00;96329.06;5065236;28;20404;-62
2021/12/29 03:34:34;;;;;;;24.08;7.97;;;;;;;5.98;100.00;96216.19;5047246;28;20048;-63
2021/12/29 03:37:01;;;;;;;35.25;8.95;;;;;;;6.30;100.00;96233.31;5064995;28;20063;-68
2021/12/29 03:39:27;;;;;;;33.25;9.30;;;;;;;6.94;100.00;96329.72;5046949;28;20545;-70
2021/12/29 03:41:54;;;;;;;33.60;9.82;;;;;;;6.30;100.00;96247.06;5065242;28;20057;-63
2021/12/29 03:44:21;;;;;;;22.42;8.00;;;;;;;6.63;100.00;96309.81;5064775;28;20055;-69
2021/12/29 03:46:48;;;;;;;27.20;8.30;;;;;;;6.42;100.00;96312.94;5064521;28;20048;-68
2021/12/29 03:49:15;;;;;;;24.50;8.18;;;;;;;6.72;100.00;96338.72;5046716;28;20055;-63
2021/12/29 03:51:42;;;;;;;14.82;5.95;;;;;;;6.70;100.00;96324.50;5046566;28;20049;-68
2021/12/29 03:54:09;;;;;;;24.88;7.35;;;;;;;6.32;100.00;96301.72;5064527;28;20053;-62
2021/12/29 03:56:35;;;;;;;22.88;7.07;;;;;;;6.35;100.00;96318.28;5046452;28;20484;-69
2021/12/29 03:59:02;;;;;;;16.48;7.03;;;;;;;6.44;100.00;96329.88;5064315;28;20504;-62
2021/12/29 04:01:29;;;;;;;17.73;7.45;;;;;;;6.62;100.00;96320.03;5064434;28;20062;-63
2021/12/29 04:03:56;;;;;;;14.80;6.88;;;;;;;6.70;100.00;96319.00;5047352;28;20049;-65
2021/12/29 04:06:23;;;;;;;16.92;7.40;;;;;;;6.71;100.00;96325.31;5064181;28;20503;-65
2021/12/29 04:08:49;;;;;;;17.80;6.65;;;;;;;6.58;100.00;96321.91;5064377;28;20327;-62
2021/12/29 04:11:18;;;;;;;15.70;6.10;;;;;;;6.40;100.00;96323.50;5064341;28;20052;-63
2021/12/29 04:13:47;;;;;;;15.90;6.53;;;;;;;5.88;100.00;96265.44;5048272;28;20076;-69
2021/12/29 04:16:17;;;;;;;15.73;5.63;;;;;;;6.09;100.00;96313.41;5044091;28;20520;-62
2021/12/29 04:19:05;;;;;;;12.15;5.30;;;;;;;6.15;100.00;96330.41;5044394;28;21030;-69
2021/12/29 04:21:35;;;;;;;11.45;3.80;;;;;;;5.94;100.00;96319.72;5044374;28;20598;-69
2021/12/29 04:24:03;;;;;;;12.30;4.55;;;;;;;5.98;100.00;96328.88;5044759;28;20052;-63
2021/12/29 04:26:33;;;;;;;23.13;5.88;;;;;;;5.80;100.00;96302.88;5026369;28;20095;-63
2021/12/29 04:28:59;;;;;;;23.77;6.25;;;;;;;6.00;100.00;96334.00;5044354;28;20045;-62
2021/12/29 04:31:26;;;;;;;17.50;6.72;;;;;;;6.19;100.00;96323.06;5043883;28;20049;-63
2021/12/29 04:33:53;;;;;;;21.40;7.03;;;;;;;6.05;100.00;96273.25;5044431;28;20049;-68
2021/12/29 04:36:24;;;;;;;21.83;6.05;;;;;;;6.22;100.00;96324.28;5043774;28;20045;-62
2021/12/29 04:38:53;;;;;;;16.48;5.88;;;;;;;6.12;100.00;96320.13;5043985;28;20053;-63
2021/12/29 04:41:21;;;;;;;12.13;4.35;;;;;;;5.89;100.00;96280.75;5043910;28;20057;-64
2021/12/29 04:43:48;;;;;;;11.30;4.90;;;;;;;6.01;100.00;96335.59;5025639;28;20049;-63
2021/12/29 04:46:17;;;;;;;10.32;4.47;;;;;;;6.13;100.00;96321.75;5043281;28;20860;-68
2021/12/29 04:48:58;;;;;;;10.88;4.30;;;;;;;6.10;100.00;96316.97;5043429;28;20447;-63
2021/12/29 04:51:33;;;;;;;11.90;4.90;;;;;;;5.94;100.00;96280.47;5043580;28;20504;-63
2021/12/29 04:54:02;;;;;;;18.33;4.50;;;;;;;5.98;100.00;96297.81;5025740;28;20092;-69
2021/12/29 04:56:28;;;;;;;15.23;4.93;;;;;;;6.28;100.00;96318.13;5043438;28;20053;-70
2021/12/29 04:58:55;;;;;;;10.77;3.90;;;;;;;6.24;100.00;96322.78;5043259;28;20049;-71
2021/12/29 05:01:22;;;;;;;10.20;4.47;;;;;;;5.95;100.00;96265.56;5042042;28;20061;-70
2021/12/29 05:03:50;;;;;;;13.57;3.50;;;;;;;6.39;100.00;96313.66;5043386;28;20122;-64
2021/12/29 05:09:18;;;;;;;10.50;3.50;;;;;;;6.24;100.00;96311.78;5019999;28;20049;-72
2021/12/29 05:11:46;;;;;;;9.88;3.75;;;;;;;6.08;100.00;96308.28;5038494;28;20065;-63
2021/12/29 05:14:13;;;;;;;11.75;4.07;;;;;;;4.86;100.00;96142.19;5063035;28;20056;-63
2021/12/29 05:16:40;;;;;;;12.95;5.05;;;;;;;5.96;100.00;96300.13;5062967;28;20058;-63
2021/12/29 05:19:07;;;;;;;10.63;4.07;;;;;;;5.56;100.00;96253.69;5045320;28;20060;-71
2021/12/29 05:21:34;;;;;;;12.30;4.68;;;;;;;5.90;100.00;96307.06;5062957;28;20404;-64
2021/12/29 05:24:01;;;;;;;10.18;4.13;;;;;;;5.73;100.00;96279.97;5045682;28;20509;-63
2021/12/29 05:26:27;;;;;;;10.98;4.43;;;;;;;5.92;100.00;96316.56;5045874;28;20490;-69
2021/12/29 05:28:54;;;;;;;9.63;4.15;;;;;;;6.24;100.00;96311.78;5045421;28;20439;-64
2021/12/29 05:31:21;;;;;;;12.32;5.70;;;;;;;4.77;100.00;96064.00;5062866;28;20147;-70
2021/12/29 05:33:48;;;;;;;10.75;4.85;;;;;;;6.49;100.00;96323.28;5045010;28;20049;-63
2021/12/29 05:36:14;;;;;;;11.80;4.65;;;;;;;6.27;100.00;96256.06;5044871;28;20068;-69
2021/12/29 05:38:41;;;;;;;8.32;4.47;;;;;;;6.52;100.00;96315.13;5062869;28;20048;-67
2021/12/29 05:41:08;;;;;;;8.75;4.07;;;;;;;6.43;100.00;96309.03;5044775;28;20044;-68
2021/12/29 05:43:35;;;;;;;8.05;4.13;;;;;;;6.42;100.00;96293.69;5044776;28;20496;-69
2021/12/29 05:46:02;;;;;;;9.60;5.15;;;;;;;6.74;100.00;96308.88;5062493;28;20063;-64
2021/12/29 05:48:29;;;;;;;11.95;6.13;;;;;;;6.90;100.00;96312.34;5045041;28;20052;-63
2021/12/29 05:50:56;;;;;;;14.70;7.57;;;;;;;6.90;100.00;96301.34;5005148;28;20061;-69
2021/12/29 05:53:22;;;;;;;27.38;13.07;;;;;;;6.97;100.00;96290.44;5062623;28;20060;-64
2021/12/29 05:55:49;;;;;;;30.17;13.52;;;;;;;6.51;100.00;96206.25;5065824;28;20063;-69
2021/12/29 05:58:16;;;;;;;29.83;13.77;;;;;;;6.78;100.00;96248.41;5067093;28;20059;-64
2021/12/29 06:00:43;;;;;;;22.50;10.30;;;;;;;7.10;100.00;96283.59;5067162;28;20049;-70
2021/12/29 06:03:10;;;;;;;19.30;11.02;;;;;;;7.27;100.00;96321.66;5048839;28;20087;-65
2021/12/29 06:05:37;;;;;;;23.10;12.32;;;;;;;7.28;100.00;96301.25;5063201;28;20044;-65
2021/12/29 06:08:08;;;;;;;28.50;11.60;;;;;;;6.94;100.00;96241.63;5049048;28;20530;-66
2021/12/29 06:10:35;;;;;;;29.55;9.77;;;;;;;6.62;100.00;96200.94;5066375;28;20051;-67
2021/12/29 06:13:01;;;;;;;38.58;13.55;;;;;;;7.16;100.00;96276.63;5066751;28;20079;-68
2021/12/29 06:15:28;;;;;;;20.40;9.15;;;;;;;7.18;100.00;96279.81;5048637;28;20052;-67
2021/12/29 06:17:56;;;;;;;14.52;5.95;;;;;;;7.10;100.00;96294.63;5066709;28;20052;-69
2021/12/29 06:20:23;;;;;;;14.07;6.10;;;;;;;6.87;100.00;96280.03;5048029;28;20135;-65
2021/12/29 06:22:49;;;;;;;6.07;3.40;;;;;;;6.84;100.00;96286.28;5066409;28;20052;-65
2021/12/29 06:25:17;;;;;;;5.78;2.47;;;;;;;6.80;100.00;96285.41;5065747;28;20052;-65
2021/12/29 06:27:44;;;;;;;6.55;3.28;;;;;;;6.65;100.00;96289.06;5064836;28;20542;-68
2021/12/29 06:30:14;;;;;;;7.13;3.20;;;;;;;6.43;100.00;96291.72;5066180;28;20048;-65
2021/12/29 06:32:41;;;;;;;6.70;3.50;;;;;;;6.39;100.00;96291.66;5048128;28;20059;-65
2021/12/29 06:35:10;;;;;;;9.65;4.13;;;;;;;6.47;100.00;96282.38;5047959;28;20056;-65
2021/12/29 06:37:36;;;;;;;7.85;4.82;;;;;;;6.73;100.00;96300.97;5048387;28;20044;-65
2021/12/29 06:40:04;;;;;;;6.90;3.75;;;;;;;6.77;100.00;96307.34;5065917;28;20053;-65
2021/12/29 06:42:31;;;;;;;8.10;3.65;;;;;;;6.34;100.00;96261.69;5065875;28;20438;-68
2021/12/29 06:44:58;;;;;;;12.82;5.50;;;;;;;4.66;100.00;95956.78;5065714;28;20578;-65
2021/12/29 06:47:26;;;;;;;12.88;5.35;;;;;;;4.97;100.00;96003.31;5047946;28;20083;-69
2021/12/29 06:49:53;;;;;;;9.98;4.82;;;;;;;6.87;100.00;96313.06;5050338;28;20071;-65
2021/12/29 06:52:20;;;;;;;10.25;4.75;;;;;;;6.24;100.00;96207.28;5049211;28;20049;-62
2021/12/29 06:54:46;;;;;;;11.20;5.13;;;;;;;6.64;100.00;96276.44;5060099;28;20056;-63
2021/12/29 06:57:13;;;;;;;9.15;4.63;;;;;;;6.99;100.00;96315.66;5062553;28;20052;-64
2021/12/29 06:59:42;;;;;;;20.10;10.25;;;;;;;7.12;100.00;96319.84;5048371;28;20053;-60
2021/12/29 07:02:10;;;;;;;16.95;8.77;;;;;;;6.88;100.00;96284.38;5058789;28;20055;-62
2021/12/29 07:04:37;;;;;;;11.73;6.55;;;;;;;7.24;100.00;96316.91;5042086;28;20053;-61
2021/12/29 07:07:04;;;;;;;14.35;7.85;;;;;;;7.16;100.00;96308.88;5034177;28;20420;-63
2021/12/29 07:09:34;;;;;;;15.27;8.35;;;;;;;6.66;100.00;96235.59;5053261;28;20055;-65
2021/12/29 07:12:03;;;;;;;13.27;8.35;;;;;;;6.69;100.00;96229.38;5048822;28;20053;-67
2021/12/29 07:14:37;;;;;;;16.17;8.43;;;;;;;6.38;100.00;96168.25;5054562;28;20140;-63
2021/12/29 07:17:05;;;;;;;19.20;9.07;;;;;;;7.22;100.00;96313.69;5045182;28;20415;-64
2021/12/29 07:19:32;;;;;;;22.85;10.90;;;;;;;7.38;100.00;96311.63;5045445;28;20063;-63
2021/12/29 07:22:00;;;;;;;27.80;14.98;;;;;;;7.38;100.00;96314.38;5060766;28;20048;-65
2021/12/29 07:24:26;;;;;;;28.23;13.57;;;;;;;7.39;100.00;96324.25;5085151;28;20098;-64
2021/12/29 07:26:53;;;;;;;20.55;11.25;;;;;;;6.79;100.00;96228.78;5052599;28;20055;-62
2021/12/29 07:29:20;;;;;;;21.23;10.20;;;;;;;7.52;100.00;96344.94;5053111;28;20543;-66
2021/12/29 07:31:47;;;;;;;16.45;8.52;;;;;;;7.28;100.00;96306.75;5044515;28;20157;-66
2021/12/29 07:34:22;;;;;;;15.25;8.98;;;;;;;7.34;100.00;96316.28;5053050;28;20071;-63
2021/12/29 07:36:50;;;;;;;17.27;10.10;;;;;;;7.47;100.00;96325.97;5056534;28;20059;-64
2021/12/29 07:39:17;;;;;;;21.67;11.95;;;;;;;6.95;100.00;96286.47;5056921;28;20044;-64
2021/12/29 07:41:46;;;;;;;8.50;5.60;;;;;;;6.81;100.00;96220.94;5039565;28;20060;-67
2021/12/29 07:44:14;;;;;;;15.07;6.90;;;;;;;7.12;100.00;96274.97;5038312;28;20081;-65
2021/12/29 07:46:42;;;;;;;14.65;7.47;;;;;;;7.25;100.00;96299.22;5044339;28;20068;-60
2021/12/29 07:49:09;;;;;;;12.48;5.85;;;;;;;6.92;100.00;96238.47;5025899;28;20524;-64
2021/12/29 07:51:36;;;;;;;19.13;8.70;;;;;;;7.39;100.00;96321.50;5037170;28;20052;-67
2021/12/29 07:54:03;;;;;;;24.98;13.63;;;;;;;7.20;100.00;96305.03;5056186;28;20525;-62
2021/12/29 07:56:30;;;;;;;42.05;18.27;;;;;;;7.17;100.00;96305.78;5053522;28;20049;-61
2021/12/29 07:58:57;;;;;;;64.53;28.50;;;;;;;6.99;100.00;96274.34;5049109;28;20515;-63
2021/12/29 08:01:24;;;;;;;44.05;17.83;;;;;;;7.31;100.00;96332.75;5043427;28;20049;-66
2021/12/29 08:03:51;;;;;;;60.45;21.67;;;;;;;7.26;100.00;96341.31;5033264;28;20518;-62
2021/12/29 08:06:18;;;;;;;37.03;14.68;;;;;;;7.05;100.00;96325.19;5049360;28;20048;-65
2021/12/29 08:08:45;;;;;;;35.20;16.60;;;;;;;7.24;100.00;96330.66;5053358;28;20411;-60
2021/12/29 08:11:12;;;;;;;35.33;16.67;;;;;;;7.36;100.00;96335.22;5054027;28;20451;-67
2021/12/29 08:13:39;;;;;;;22.00;10.95;;;;;;;6.81;100.00;96248.44;5026248;28;20052;-66
2021/12/29 08:16:06;;;;;;;12.38;6.28;;;;;;;7.37;100.00;96329.34;5044046;28;20048;-62
2021/12/29 08:18:33;;;;;;;28.00;12.23;;;;;;;7.46;100.00;96329.88;5049654;28;20049;-61
2021/12/29 08:20:59;;;;;;;24.38;13.00;;;;;;;5.59;100.00;96032.44;5048930;28;20056;-64
2021/12/29 08:23:26;;;;;;;13.48;7.20;;;;;;;7.52;100.00;96330.38;5066724;28;20059;-62
2021/12/29 08:25:53;;;;;;;20.42;8.80;;;;;;;7.51;100.00;96332.34;5066300;28;20463;-65
2021/12/29 08:28:22;;;;;;;11.05;5.70;;;;;;;7.39;100.00;96338.03;5050266;28;20044;-61
2021/12/29 08:30:50;;;;;;;12.55;7.30;;;;;;;7.47;100.00;96325.19;5044324;28;20060;-61
2021/12/29 08:33:17;;;;;;;29.52;13.48;;;;;;;6.69;100.00;96207.34;5050706;28;20566;-62
2021/12/29 08:35:44;;;;;;;35.05;16.25;;;;;;;7.43;100.00;96319.59;5058288;28;20070;-66
2021/12/29 08:38:10;;;;;;;124.50;47.60;;;;;;;7.52;100.00;96328.41;5063535;28;20135;-62
2021/12/29 08:40:37;;;;;;;60.78;24.25;;;;;;;7.52;100.00;96300.84;5029800;28;20049;-61
2021/12/29 08:43:04;;;;;;;34.65;15.02;;;;;;;6.79;100.00;96179.25;5045009;28;20044;-63
2021/12/29 08:45:33;;;;;;;26.35;12.75;;;;;;;7.87;100.00;96311.66;5051283;28;20061;-76
2021/12/29 08:48:00;;;;;;;37.50;17.67;;;;;;;7.09;100.00;96193.91;5038895;28;20057;-63
2021/12/29 08:50:30;;;;;;;82.20;29.70;;;;;;;7.85;100.00;96307.66;5041475;28;20405;-64
2021/12/29 08:53:02;;;;;;;51.58;21.80;;;;;;;7.81;100.00;96274.53;5044139;28;20049;-63
2021/12/29 08:55:31;;;;;;;73.45;33.40;;;;;;;7.29;100.00;96198.16;5043358;28;20055;-64
2021/12/29 08:57:59;;;;;;;112.43;42.35;;;;;;;7.04;100.00;96163.94;5043810;28;20063;-65
2021/12/29 09:00:26;;;;;;;53.47;22.38;;;;;;;8.00;100.00;96348.09;5043230;28;20057;-66
2021/12/29 09:02:53;;;;;;;25.83;11.85;;;;;;;7.68;100.00;96262.91;5043481;28;20053;-65
2021/12/29 09:05:20;;;;;;;22.88;9.95;;;;;;;8.00;100.00;96287.44;5042581;28;20155;-66
2021/12/29 09:07:47;;;;;;;52.17;20.77;;;;;;;7.89;100.00;96287.25;5043132;28;20045;-65
2021/12/29 09:10:18;;;;;;;24.55;10.20;;;;;;;7.84;100.00;96268.28;5043524;28;20049;-65
2021/12/29 09:12:47;;;;;;;21.65;12.02;;;;;;;7.98;100.00;96285.06;5043259;28;20076;-64
2021/12/29 09:15:15;;;;;;;12.38;5.95;;;;;;;7.91;100.00;96281.38;5043028;28;20053;-63
2021/12/29 09:17:42;;;;;;;13.20;6.57;;;;;;;7.27;100.00;96178.44;5042859;28;20053;-66
2021/12/29 09:20:15;;;;;;;17.27;8.27;;;;;;;7.65;100.00;96222.31;5054115;28;20060;-63
2021/12/29 09:22:42;;;;;;;80.32;40.47;;;;;;;8.04;100.00;96266.19;5035843;28;20056;-65
2021/12/29 09:25:09;;;;;;;26.05;12.80;;;;;;;7.91;100.00;96240.00;5042881;28;20079;-67
2021/12/29 09:27:36;;;;;;;35.97;17.80;;;;;;;8.05;100.00;96259.50;5042537;28;20068;-68
2021/12/29 09:30:04;;;;;;;18.63;8.80;;;;;;;7.57;100.00;96182.03;5059845;28;20051;-64
2021/12/29 09:32:31;;;;;;;5.35;3.85;;;;;;;7.97;100.00;96266.91;5064216;28;20056;-66
2021/12/29 09:35:00;;;;;;;7.40;3.55;;;;;;;7.73;100.00;96218.50;5047782;28;20377;-65
2021/12/29 09:37:28;;;;;;;6.40;3.30;;;;;;;7.61;100.00;96177.41;5044563;28;20232;-64
2021/12/29 09:39:54;;;;;;;11.18;5.03;;;;;;;7.74;100.00;96200.00;5040331;28;20543;-62
2021/12/29 09:42:21;;;;;;;11.73;6.38;;;;;;;7.98;100.00;96246.44;5050875;28;20053;-63
2021/12/29 09:44:51;;;;;;;13.23;6.65;;;;;;;8.02;100.00;96236.25;5053872;28;20048;-61
2021/12/29 09:47:19;;;;;;;9.85;5.65;;;;;;;7.87;100.00;96208.84;5052874;28;20052;-70
2021/12/29 09:49:46;;;;;;;9.63;5.65;;;;;;;7.93;100.00;96248.72;5054436;28;20515;-64
2021/12/29 09:52:13;;;;;;;11.07;7.18;;;;;;;7.58;100.00;96194.69;5066273;28;20519;-61
2021/12/29 09:54:39;;;;;;;12.45;8.45;;;;;;;7.85;100.00;96252.53;5055477;28;20048;-64
2021/12/29 09:57:06;;;;;;;11.32;8.20;;;;;;;7.73;100.00;96246.06;5046235;28;20586;-61
2021/12/29 09:59:33;;;;;;;8.60;4.75;;;;;;;7.46;100.00;96249.19;5046631;28;20083;-64
2021/12/29 10:02:04;;;;;;;11.55;7.60;;;;;;;6.62;100.00;96097.19;5041959;28;20053;-67
2021/12/29 10:04:34;;;;;;;12.68;6.68;;;;;;;7.58;100.00;96249.78;5029060;28;20060;-67
2021/12/29 10:07:15;;;;;;;13.50;7.50;;;;;;;7.62;100.00;96245.13;5048920;28;20048;-63
2021/12/29 10:09:42;;;;;;;17.70;10.23;;;;;;;6.94;100.00;96158.25;5061151;28;20060;-66
2021/12/29 10:12:18;;;;;;;16.27;8.35;;;;;;;7.04;100.00;96158.41;5055022;28;20044;-65
2021/12/29 10:14:53;;;;;;;16.83;9.45;;;;;;;7.68;100.00;96235.34;5066567;28;20049;-66
2021/12/29 10:17:25;;;;;;;18.88;9.27;;;;;;;7.66;100.00;96234.16;5066032;28;20059;-65
2021/12/29 10:20:10;;;;;;;31.33;14.90;;;;;;;7.02;100.00;96111.19;5066010;28;20090;-64
2021/12/29 10:22:37;;;;;;;19.75;8.93;;;;;;;7.93;100.00;96215.63;5047293;28;20277;-67
2021/12/29 10:25:14;;;;;;;26.95;15.00;;;;;;;8.00;100.00;96216.50;5064658;28;20058;-65
2021/12/29 10:27:42;;;;;;;30.60;13.52;;;;;;;7.79;100.00;96177.66;5053871;28;20056;-68
2021/12/29 10:30:22;;;;;;;66.38;23.38;;;;;;;5.72;100.00;95849.81;5055233;28;20148;-69
2021/12/29 10:32:50;;;;;;;24.92;9.68;;;;;;;8.00;100.00;96210.22;5044655;28;20045;-72
2021/12/29 10:35:32;;;;;;;35.97;14.60;;;;;;;7.16;100.00;96072.84;5044199;28;20591;-64
2021/12/29 10:38:22;;;;;;;20.15;8.85;;;;;;;7.93;100.00;96215.63;5028102;28;20060;-64
2021/12/29 10:40:49;;;;;;;31.02;15.20;;;;;;;7.93;100.00;96185.31;5025963;28;20064;-65
2021/12/29 10:43:17;;;;;;;18.48;9.13;;;;;;;7.96;100.00;96210.16;5030954;28;20099;-63
2021/12/29 10:45:46;;;;;;;40.22;20.80;;;;;;;8.03;100.00;96209.47;5027443;28;20184;-67
2021/12/29 10:48:22;;;;;;;4.45;2.80;;;;;;;7.95;100.00;96196.75;5045496;28;20076;-65
2021/12/29 10:51:07;;;;;;;2.75;1.10;;;;;;;7.10;100.00;96202.94;5064341;28;20053;-65
2021/12/29 10:53:37;;;;;;;2.78;1.42;;;;;;;6.66;100.00;96133.78;5066215;28;20048;-67
2021/12/29 10:56:04;;;;;;;2.60;1.52;;;;;;;6.88;100.00;96190.78;5065223;28;20056;-66
2021/12/29 10:58:35;;;;;;;4.50;1.70;;;;;;;6.86;100.00;96179.34;5043330;28;20061;-67
2021/12/29 11:01:06;;;;;;;2.83;1.83;;;;;;;7.16;100.00;96185.75;5058872;28;20084;-63
2021/12/29 11:03:42;;;;;;;4.18;2.08;;;;;;;6.87;100.00;96097.56;5049365;28;20088;-61
2021/12/29 11:06:13;;;;;;;4.45;2.58;;;;;;;7.16;100.00;96133.41;5048889;28;20063;-61
2021/12/29 11:08:55;;;;;;;2.95;2.08;;;;;;;7.13;100.00;96111.34;5054511;28;20049;-63
2021/12/29 11:11:37;;;;;;;6.45;4.50;;;;;;;7.10;100.00;96110.13;5064371;28;20058;-69
2021/12/29 11:14:14;;;;;;;2.85;2.10;;;;;;;7.68;100.00;96166.47;5056847;28;20132;-68
2021/12/29 11:16:43;;;;;;;3.78;1.60;;;;;;;7.80;100.00;96161.88;5046050;28;20620;-71
2021/12/29 11:19:11;;;;;;;7.47;1.58;;;;;;;6.83;100.00;96030.69;5057912;28;20084;-70
2021/12/29 11:21:42;;;;;;;2.63;1.55;;;;;;;5.25;100.00;95731.38;5046407;28;20052;-70
2021/12/29 11:24:23;;;;;;;2.65;1.67;;;;;;;7.12;100.00;96010.63;5045630;28;20076;-66
2021/12/29 11:26:51;;;;;;;2.67;1.40;;;;;;;7.94;100.00;96145.53;5034949;28;20543;-64
2021/12/29 11:29:20;;;;;;;2.47;1.48;;;;;;;8.19;100.00;96141.13;5045381;28;20607;-73
2021/12/29 11:31:58;;;;;;;4.03;1.83;;;;;;;8.17;100.00;96143.44;5037922;28;20434;-64
2021/12/29 11:34:27;;;;;;;6.85;3.45;;;;;;;7.98;100.00;96116.84;5046415;28;20091;-65
2021/12/29 11:37:12;;;;;;;4.25;2.05;;;;;;;8.25;100.00;96150.69;5054353;28;20048;-65